Aktualne dane pomiarowe

Uwaga, wersja testowa! Automatyczne pobieranie danych za pomocą narzędzi lub skryptów to umożliwiających jest zabronione.

Dane meteo z obszaru Polski uzyskane na podstawie depesz SYNOP pobieranych co godzinę z NWS. Najedź myszką na symbol przedstawiony w tabeli, aby uzyskać informacje co do jego znaczenia. Prosimy pamiętać, że to testowa wersja strony, która jeszcze nie jest ukończona. Stworzono również jest krótki FAQ dotyczący korzystania z tej podstrony Anomalie temperatury w chwili obecnej odniesione są do okresu referencyjnego 1951-2016. Okres ten będzie później zmieniony na 1981-2010. Kliknij ikonę aby pobrać plik CSV. Kliknij ikonę aby wygenerować mapę synoptyczną dla danego terminu.

Wybierz Datę:    

        

Chojnice (12235)

Dane terminowe dla wybranej stacji. Kliknij datę, aby otrzymać dane z tego terminu dla wszystkich stacji.

TemperaturaZachmurzenieWiatrCiśnienieOpadyPogoda
 Data t td wb tx tn tg rh  Nt Nl Cl Cm Ch ws wd g1 g2 wx mslp ppp ch 24h 12h t ww ww w1 w2  
2019-06-30 23:00:00 21.9 15.1 17.4--- 6525.0wx-6wx-1161010.1 990.1 1.5---------
2019-06-30 22:00:00 23.7 15.6 18.4--- 6130.0wx-wx3wx--31009.2 989.4 0.7---------
2019-06-30 21:00:00 26.2 12.7 17.9--- 4335.0wx-wx5wx101051009.1 989.5 0.7---------
2019-06-30 20:00:00 25.1 12.1 17.2--- 4425.0wx-wx3wx---1008.3 988.6 -0.3---------
2019-06-30 19:00:00 29.9 9.5 17.9--- 2840.0wx-wx3wx--31008.1 988.7 -0.6---------
2019-06-30 18:00:00 32.7 8.9 18.6 34.9 22.3- 2340.0wx-3wx-1131008.0 988.8 -0.9- 0.012------
2019-06-30 17:00:00 34.2 7.4 18.5--- 1940.0wx-4wx-1041008.0 988.9 -1.5---------
2019-06-30 16:00:00 34.6 8.4 19.1--- 2030.0wx-6wx--61008.4 989.3 -1.7---------
2019-06-30 15:00:00 34.6 9.2 19.4--- 2130.0wx-wx6wx-1161008.8 989.7 -2.1---------
2019-06-30 14:00:00 34.4 8.3 19.0--- 2030.0wx-7wx--71009.5 990.4 -2.3---------
2019-06-30 13:00:00 34.0 8.0 18.7--- 2029.0wx-7wx-1171010.2 991.0 -2.5---------
2019-06-30 12:00:00 32.9 8.4 18.5--- 2230.0wx-6wx111161011.1 991.8 -2.2- 0.06------
2019-06-30 11:00:00 31.5 8.6 18.1--- 2427.0wx-5wx--51012.1 992.7 -1.7---------
2019-06-30 10:00:00 30.2 10.3 18.3--- 2929.0wx-5wx--51013.0 993.5 -1.2---------
2019-06-30 09:00:00 28.8 11.0 18.1--- 3340.0wx-5wx---1013.6 994.0 -0.9---------
2019-06-30 08:00:00 27.1 10.4 17.2--- 3535.0wx-5wx--51014.1 994.4 -0.7---------
2019-06-30 07:00:00 24.7 11.7 16.8--- 4427.0wx-5wx--51014.6 994.7 -0.4---------
2019-06-30 06:00:00 22.3 13.2 16.6 24.9 12.5 11 5630.0wx-4wx--41014.9 994.9 -0.4- 0.012----- 15.4
2019-06-30 05:00:00 17.3 11.9 13.8--- 7135.0wx-1wx--11015.5 995.1 -0.3---------
2019-06-30 04:00:00 14.0 9.7 11.3--- 7540.0wx-wx1wx---1015.7 995.1 -0.7---------
2019-06-30 03:00:00 13.0 9.7 10.8--- 8035.0wx-wx3wx--31016.0 995.3 -0.7---------
2019-06-30 02:00:00 13.7 9.2 10.9--- 7435.0wx-wx2wx--21016.0 995.4 -0.8---------
2019-06-30 01:00:00 14.0 9.3 11.0--- 7345.0wx-2wx--21016.4 995.8 -0.8---------
2019-06-30 00:00:00 15.6 9.4 11.8--- 6750.0wx-2wx--21016.5 996.0 -1.0- 0.06------
2019-06-29 23:00:00 18.3 9.2 12.9--- 5550.0wx-3wx---1016.5 996.2 -1.0---------
2019-06-29 22:00:00 19.5 8.3 13.1--- 4850.0wx-2wx---1016.8 996.6 -0.5---------
2019-06-29 21:00:00 20.2 9.2 13.8--- 4935.0wx-2wx--21017.2 997.0 0.0---------
2019-06-29 20:00:00 20.7 9.1 13.9--- 4730.0wx-3wx--31017.4 997.2 0.0---------
2019-06-29 19:00:00 22.8 8.9 14.8--- 4140.0wx-2wx--21017.1 997.1 -0.1---------
2019-06-29 18:00:00 24.9 8.0 15.3 26.6 17.7- 3435.0wx-3wx-1031016.9 997.0 -0.4- 0.012------
2019-06-29 17:00:00 26.0 10.3 16.7--- 3735.0wx-4wx---1017.0 997.2 -0.7---------
2019-06-29 16:00:00 26.5 10.3 16.9--- 3635.0wx-3wx---1017.0 997.2 -1.0---------
2019-06-29 15:00:00 26.2 12.0 17.6--- 4130.0wx-4wx-941017.2 997.4 -1.7---------
2019-06-29 14:00:00 26.1 10.4 16.8--- 3728.0wx-wx5wx---1017.7 997.9 -1.5---------
2019-06-29 13:00:00 25.6 9.1 16.0--- 3535.0wx-wx4wx9--1018.1 998.2 -1.4---------
2019-06-29 12:00:00 24.7 9.1 15.7--- 3730.0wx-wx5wx-1451019.0 999.1 -0.8- 0.06------
2019-06-29 11:00:00 23.4 8.0 14.6--- 3730.0wx-wx4wx--41019.4 999.4 -1.2---------
2019-06-29 10:00:00 22.6 10.5 15.4--- 4625.0wx-wx3wx--31019.7 999.6 -1.1---------
2019-06-29 09:00:00 21.4 11.2 15.2--- 5235.0wx-wx5wx-1451020.1 999.9 -0.7---------
2019-06-29 08:00:00 20.3 12.1 15.2--- 5935.0wxwxwxwx3wx--31020.91000.6 -0.4---------
2019-06-29 07:00:00 19.0 11.9 14.5--- 6335.0wx-wx2wx-1421021.11000.7 -0.3---------
2019-06-29 06:00:00 17.7 12.0 14.1 20.7 13.7 11 6935.0wx-wx2wx--21021.11000.6 -0.6- 0.012----- 9.2
2019-06-29 05:00:00 16.0 12.8 13.8--- 8130.0wx-wx2wx--21021.61001.0 -0.1---------
2019-06-29 04:00:00 15.1 12.9 13.6--- 8728.0wx-wx3wx--31021.71001.0 -0.5---------
2019-06-29 03:00:00 14.1 12.2 12.8--- 8828.0wx-wx3wx--31021.91001.2 -0.6---------
2019-06-29 02:00:00 14.0 10.3 11.6--- 7850.0wx-wx3wx--31021.81001.1 -0.7---------
2019-06-29 01:00:00 13.8 10.1 11.4--- 7850.0wx-wx2wx--21022.31001.5 -0.4---------
2019-06-29 00:00:00 13.8 11.1 12.0--- 8445.0wx-wx3wx--31022.61001.8 0.1- 0.06------
2.5 ms

 

Print Friendly, PDF & Email